Kydon — SWBZ — position and weather

sailwx.info

Track history (hours):
 
Tides and Currents Weather Stations Pressure Air Temp Water Temp Dewpoint Dewpoint Depression Visibility Wind Speed Wind Dir Waves Ship Positions

Kydon

Last reported at 2015-Aug-28 08:33 UTC. Time now 2015-Aug-28 22:20 UTC.
Position N 37°32' E 023°44'.

Length 192 m; draft 6.5 m.

Type: Passenger vessel. MMSI: 239593000.

Date/timePositionNaut miles runAvg speedWind from/ knotsBaromVisibWave heightAir tempDewpointWater temp
2015-Aug-28 08:33N 37°32' E 023°44'2020.3
2015-Aug-28 07:33N 37°52' E 023°37'5 5.2
2015-Aug-28 06:33N 37°57' E 023°38'0 0.0
2015-Aug-28 05:33N 37°57' E 023°38'0 0.0
2015-Aug-28 04:33N 37°57' E 023°38'0 0.0
2015-Aug-28 03:33N 37°57' E 023°38'8 7.8
2015-Aug-28 02:33N 37°49' E 023°41'16 0.9
2015-Aug-27 08:33N 37°33' E 023°44'2020.2
2015-Aug-27 07:33N 37°53' E 023°37'4 4.3
2015-Aug-27 06:33N 37°57' E 023°38'0 0.0
2015-Aug-27 05:33N 37°57' E 023°38'0 0.0
2015-Aug-27 04:34N 37°57' E 023°38'0 0.0
2015-Aug-27 03:34N 37°57' E 023°38'10 9.6
2015-Aug-27 02:33N 37°48' E 023°42'16 0.9
2015-Aug-26 08:33N 37°32' E 023°44'2020.3
2015-Aug-26 07:33N 37°51' E 023°37'6 5.8
2015-Aug-26 06:33N 37°57' E 023°38'0 0.0
2015-Aug-26 05:33N 37°57' E 023°38'0 0.0
2015-Aug-26 04:33N 37°57' E 023°38'0 0.0
2015-Aug-26 03:33N 37°57' E 023°38'1212.4
2015-Aug-26 02:34N 37°45' E 023°43'13 0.4
2015-Aug-24 20:33N 37°32' E 023°45'2020.1
2015-Aug-24 19:33N 37°51' E 023°37'6 6.3
2015-Aug-24 18:34N 37°57' E 023°38'0 0.0
2015-Aug-24 17:34N 37°57' E 023°38'0 0.0
2015-Aug-24 16:34N 37°57' E 023°38'0 0.0
2015-Aug-24 15:33N 37°57' E 023°38'0 0.0
2015-Aug-24 14:34N 37°57' E 023°38'0 0.0
2015-Aug-24 13:34N 37°57' E 023°38'0 0.0
2015-Aug-24 12:33N 37°57' E 023°38'0 0.0
2015-Aug-24 11:34N 37°57' E 023°38'0 0.0
2015-Aug-24 10:33N 37°57' E 023°38'0 0.0
2015-Aug-24 09:33N 37°57' E 023°38'0 0.0
2015-Aug-24 08:33N 37°57' E 023°38'0 0.0
2015-Aug-24 07:33N 37°57' E 023°38'0 0.0
2015-Aug-24 06:34N 37°57' E 023°38'0 0.0
2015-Aug-24 05:25N 37°57' E 023°38'0 0.0
2015-Aug-24 04:34N 37°57' E 023°38'0 0.0
2015-Aug-24 03:34N 37°57' E 023°38'7 6.6
2015-Aug-24 02:33N 37°50' E 023°40'18 1.0
2015-Aug-23 08:33N 37°33' E 023°44'2020.0
2015-Aug-23 07:33N 37°52' E 023°37'5 5.2
2015-Aug-23 06:33N 37°57' E 023°38'0 0.0
2015-Aug-23 05:33N 37°57' E 023°38'0 0.0
2015-Aug-23 04:34N 37°57' E 023°38'0 0.0
2015-Aug-23 03:34N 37°57' E 023°38'8 7.5
2015-Aug-23 02:33N 37°50' E 023°41'18 1.0
2015-Aug-22 08:31N 37°32' E 023°45'1920.3
2015-Aug-22 07:34N 37°50' E 023°37'6 6.5
2015-Aug-22 06:33N 37°57' E 023°38'0 0.0
2015-Aug-22 05:33N 37°57' E 023°38'0 0.0
2015-Aug-22 04:33N 37°57' E 023°38'0 0.0
2015-Aug-22 03:33N 37°57' E 023°38'7 7.0
2015-Aug-22 02:33N 37°50' E 023°41'18 1.0
2015-Aug-21 08:33N 37°32' E 023°44'2020.0
2015-Aug-21 07:33N 37°51' E 023°37'6 5.6
2015-Aug-21 06:33N 37°57' E 023°38'0 0.0
2015-Aug-21 05:33N 37°57' E 023°38'0 0.0
2015-Aug-21 04:33N 37°57' E 023°38'0 0.0
2015-Aug-21 03:33N 37°57' E 023°38'7 6.7
2015-Aug-21 02:33N 37°50' E 023°40'2319.7
2015-Aug-21 01:22N 37°28' E 023°49'1720.8
2015-Aug-21 00:32N 37°11' E 023°52'4120.4
2015-Aug-20 22:33N 36°31' E 024°01'2121.0
2015-Aug-20 21:33N 36°11' E 024°06'2120.2
2015-Aug-20 20:33N 35°50' E 024°10'16 2.7
2015-Aug-20 14:28N 35°34' E 024°15'2120.9
2015-Aug-20 13:28N 35°55' E 024°09'2020.8
2015-Aug-20 12:29N 36°15' E 024°05'2320.4
2015-Aug-20 11:22N 36°38' E 023°60'1720.6
2015-Aug-20 10:33N 36°54' E 023°56'2019.9
2015-Aug-20 09:32N 37°14' E 023°50'2020.1
2015-Aug-20 08:33N 37°33' E 023°44'2020.0
2015-Aug-20 07:33N 37°52' E 023°37'5 5.0
2015-Aug-20 06:33N 37°57' E 023°38'0 0.0
2015-Aug-20 05:33N 37°57' E 023°38'0 0.0
2015-Aug-20 04:33N 37°57' E 023°38'0 0.0
2015-Aug-20 03:33N 37°57' E 023°38'7 7.4
2015-Aug-20 02:34N 37°50' E 023°41'2019.4
2015-Aug-20 01:31N 37°30' E 023°48'2020.6
2015-Aug-20 00:34N 37°11' E 023°52'2220.9
2015-Aug-19 23:31N 36°50' E 023°57'4820.6
2015-Aug-19 21:11N 36°02' E 024°07'1219.8
2015-Aug-19 20:33N 35°50' E 024°10'1919.4
2015-Aug-19 19:33N 35°30' E 024°12'3 0.6
2015-Aug-19 14:32N 35°33' E 024°14'2020.8
2015-Aug-19 13:33N 35°53' E 024°09'2320.7
2015-Aug-19 12:28N 36°16' E 024°05'6920.3
2015-Aug-19 09:04N 37°23' E 023°48'1020.1
2015-Aug-19 08:33N 37°33' E 023°44'2020.1
2015-Aug-19 07:33N 37°53' E 023°37'4 4.4
2015-Aug-19 06:33N 37°57' E 023°38'0 0.0
2015-Aug-19 05:34N 37°57' E 023°38'0 0.0
2015-Aug-19 04:33N 37°57' E 023°38'0 0.0
2015-Aug-19 03:33N 37°57' E 023°38'8 7.8
2015-Aug-19 02:34N 37°49' E 023°41'  
Track history (hours):
 
Tides and Currents Weather Stations Pressure Air Temp Water Temp Dewpoint Dewpoint Depression Visibility Wind Speed Wind Dir Waves Ship Positions

Kydon

Last reported at 2015-Aug-28 08:33 UTC. Time now 2015-Aug-28 22:20 UTC.
Position N 37°32' E 023°44'.

Length 192 m; draft 6.5 m.

Type: Passenger vessel. MMSI: 239593000.

Date/timePositionNaut miles runAvg speedWind from/ knotsBaromVisibWave heightAir tempDewpointWater temp
2015-Aug-28 08:33N 37°32' E 023°44'2020.3
2015-Aug-28 07:33N 37°52' E 023°37'5 5.2
2015-Aug-28 06:33N 37°57' E 023°38'0 0.0
2015-Aug-28 05:33N 37°57' E 023°38'0 0.0
2015-Aug-28 04:33N 37°57' E 023°38'0 0.0
2015-Aug-28 03:33N 37°57' E 023°38'8 7.8
2015-Aug-28 02:33N 37°49' E 023°41'16 0.9
2015-Aug-27 08:33N 37°33' E 023°44'2020.2
2015-Aug-27 07:33N 37°53' E 023°37'4 4.3
2015-Aug-27 06:33N 37°57' E 023°38'0 0.0
2015-Aug-27 05:33N 37°57' E 023°38'0 0.0
2015-Aug-27 04:34N 37°57' E 023°38'0 0.0
2015-Aug-27 03:34N 37°57' E 023°38'10 9.6
2015-Aug-27 02:33N 37°48' E 023°42'16 0.9
2015-Aug-26 08:33N 37°32' E 023°44'2020.3
2015-Aug-26 07:33N 37°51' E 023°37'6 5.8
2015-Aug-26 06:33N 37°57' E 023°38'0 0.0
2015-Aug-26 05:33N 37°57' E 023°38'0 0.0
2015-Aug-26 04:33N 37°57' E 023°38'0 0.0
2015-Aug-26 03:33N 37°57' E 023°38'1212.4
2015-Aug-26 02:34N 37°45' E 023°43'13 0.4
2015-Aug-24 20:33N 37°32' E 023°45'2020.1
2015-Aug-24 19:33N 37°51' E 023°37'6 6.3
2015-Aug-24 18:34N 37°57' E 023°38'0 0.0
2015-Aug-24 17:34N 37°57' E 023°38'0 0.0
2015-Aug-24 16:34N 37°57' E 023°38'0 0.0
2015-Aug-24 15:33N 37°57' E 023°38'0 0.0
2015-Aug-24 14:34N 37°57' E 023°38'0 0.0
2015-Aug-24 13:34N 37°57' E 023°38'0 0.0
2015-Aug-24 12:33N 37°57' E 023°38'0 0.0
2015-Aug-24 11:34N 37°57' E 023°38'0 0.0
2015-Aug-24 10:33N 37°57' E 023°38'0 0.0
2015-Aug-24 09:33N 37°57' E 023°38'0 0.0
2015-Aug-24 08:33N 37°57' E 023°38'0 0.0
2015-Aug-24 07:33N 37°57' E 023°38'0 0.0
2015-Aug-24 06:34N 37°57' E 023°38'0 0.0
2015-Aug-24 05:25N 37°57' E 023°38'0 0.0
2015-Aug-24 04:34N 37°57' E 023°38'0 0.0
2015-Aug-24 03:34N 37°57' E 023°38'7 6.6
2015-Aug-24 02:33N 37°50' E 023°40'18 1.0
2015-Aug-23 08:33N 37°33' E 023°44'2020.0
2015-Aug-23 07:33N 37°52' E 023°37'5 5.2
2015-Aug-23 06:33N 37°57' E 023°38'0 0.0
2015-Aug-23 05:33N 37°57' E 023°38'0 0.0
2015-Aug-23 04:34N 37°57' E 023°38'0 0.0
2015-Aug-23 03:34N 37°57' E 023°38'8 7.5
2015-Aug-23 02:33N 37°50' E 023°41'18 1.0
2015-Aug-22 08:31N 37°32' E 023°45'1920.3
2015-Aug-22 07:34N 37°50' E 023°37'6 6.5
2015-Aug-22 06:33N 37°57' E 023°38'0 0.0
2015-Aug-22 05:33N 37°57' E 023°38'0 0.0
2015-Aug-22 04:33N 37°57' E 023°38'0 0.0
2015-Aug-22 03:33N 37°57' E 023°38'7 7.0
2015-Aug-22 02:33N 37°50' E 023°41'18 1.0
2015-Aug-21 08:33N 37°32' E 023°44'2020.0
2015-Aug-21 07:33N 37°51' E 023°37'6 5.6
2015-Aug-21 06:33N 37°57' E 023°38'0 0.0
2015-Aug-21 05:33N 37°57' E 023°38'0 0.0
2015-Aug-21 04:33N 37°57' E 023°38'0 0.0
2015-Aug-21 03:33N 37°57' E 023°38'7 6.7
2015-Aug-21 02:33N 37°50' E 023°40'2319.7
2015-Aug-21 01:22N 37°28' E 023°49'1720.8
2015-Aug-21 00:32N 37°11' E 023°52'4120.4
2015-Aug-20 22:33N 36°31' E 024°01'2121.0
2015-Aug-20 21:33N 36°11' E 024°06'2120.2
2015-Aug-20 20:33N 35°50' E 024°10'16 2.7
2015-Aug-20 14:28N 35°34' E 024°15'2120.9
2015-Aug-20 13:28N 35°55' E 024°09'2020.8
2015-Aug-20 12:29N 36°15' E 024°05'2320.4
2015-Aug-20 11:22N 36°38' E 023°60'1720.6
2015-Aug-20 10:33N 36°54' E 023°56'2019.9
2015-Aug-20 09:32N 37°14' E 023°50'2020.1
2015-Aug-20 08:33N 37°33' E 023°44'2020.0
2015-Aug-20 07:33N 37°52' E 023°37'5 5.0
2015-Aug-20 06:33N 37°57' E 023°38'0 0.0
2015-Aug-20 05:33N 37°57' E 023°38'0 0.0
2015-Aug-20 04:33N 37°57' E 023°38'0 0.0
2015-Aug-20 03:33N 37°57' E 023°38'7 7.4
2015-Aug-20 02:34N 37°50' E 023°41'2019.4
2015-Aug-20 01:31N 37°30' E 023°48'2020.6
2015-Aug-20 00:34N 37°11' E 023°52'2220.9
2015-Aug-19 23:31N 36°50' E 023°57'4820.6
2015-Aug-19 21:11N 36°02' E 024°07'1219.8
2015-Aug-19 20:33N 35°50' E 024°10'1919.4
2015-Aug-19 19:33N 35°30' E 024°12'3 0.6
2015-Aug-19 14:32N 35°33' E 024°14'2020.8
2015-Aug-19 13:33N 35°53' E 024°09'2320.7
2015-Aug-19 12:28N 36°16' E 024°05'6920.3
2015-Aug-19 09:04N 37°23' E 023°48'1020.1
2015-Aug-19 08:33N 37°33' E 023°44'2020.1
2015-Aug-19 07:33N 37°53' E 023°37'4 4.4
2015-Aug-19 06:33N 37°57' E 023°38'0 0.0
2015-Aug-19 05:34N 37°57' E 023°38'0 0.0
2015-Aug-19 04:33N 37°57' E 023°38'0 0.0
2015-Aug-19 03:33N 37°57' E 023°38'8 7.8
2015-Aug-19 02:34N 37°49' E 023°41'  

Dump ship's entire track history